Time;durP1;ratioP1;P1;durP2;ratioP2;P2;SDS_P1;SDS_P2;PMS_P1;PMS_P2;Temp;Humidity;BMP_temperature;BMP_pressure;BME280_temperature;BME280_humidity;BME280_pressure;Samples;Min_cycle;Max_cycle;Signal;HPM_P1;HPM_P2
2022/05/22 00:00:52;;;;;;;1.93;1.50;;;17.70;58.00;18.10;96702.00;;;;5040059;28;20284;-82
2022/05/22 00:03:22;;;;;;;1.67;1.40;;;17.70;58.10;18.00;96694.00;;;;5033509;28;20681;-82
2022/05/22 00:05:53;;;;;;;1.53;1.40;;;17.70;58.30;18.00;96699.00;;;;5039832;28;20288;-82
2022/05/22 00:08:20;;;;;;;2.00;1.20;;;17.60;58.90;18.00;96697.00;;;;5034091;28;20210;-82
2022/05/22 00:10:48;;;;;;;1.50;1.40;;;17.60;58.40;18.00;96694.00;;;;5041505;28;20189;-82
2022/05/22 00:13:17;;;;;;;2.10;1.37;;;17.60;58.50;18.00;96689.00;;;;5042007;28;20304;-82
2022/05/22 00:18:26;;;;;;;2.57;1.60;;;17.50;58.80;17.80;96690.00;;;;5035998;28;20674;-82
2022/05/22 00:20:56;;;;;;;1.70;1.60;;;17.50;58.90;17.80;96687.00;;;;5045604;28;20235;-82
2022/05/22 00:23:24;;;;;;;2.97;1.37;;;17.50;59.00;17.80;96688.00;;;;5038057;28;20208;-83
2022/05/22 00:25:51;;;;;;;1.83;1.50;;;17.40;59.00;17.70;96696.00;;;;5037332;28;20213;-82
2022/05/22 00:28:18;;;;;;;1.23;1.20;;;17.40;59.10;17.70;96695.00;;;;5038776;28;20229;-82
2022/05/22 00:30:45;;;;;;;1.40;1.30;;;17.40;59.10;17.70;96696.00;;;;5038998;28;20244;-82
2022/05/22 00:33:12;;;;;;;1.30;1.20;;;17.30;59.20;17.70;96687.00;;;;5037483;28;20769;-82
2022/05/22 00:35:41;;;;;;;1.30;1.30;;;17.30;59.30;17.70;96684.00;;;;5036066;28;20201;-82
2022/05/22 00:38:15;;;;;;;1.40;1.17;;;17.30;59.40;17.70;96686.00;;;;5033137;28;20217;-82
2022/05/22 00:40:45;;;;;;;1.87;1.20;;;17.30;59.50;17.70;96675.00;;;;5037935;28;20197;-82
2022/05/22 00:43:27;;;;;;;1.50;1.40;;;17.30;59.40;17.60;96664.00;;;;5037553;28;20194;-82
2022/05/22 00:45:55;;;;;;;1.50;1.40;;;17.30;59.90;17.60;96661.00;;;;5028926;28;20288;-82
2022/05/22 00:48:25;;;;;;;1.60;1.50;;;17.20;59.50;17.60;96666.00;;;;5039243;28;20248;-82
2022/05/22 00:50:58;;;;;;;1.80;1.43;;;17.20;59.60;17.60;96670.00;;;;5033409;28;20193;-82
2022/05/22 00:53:34;;;;;;;1.33;1.13;;;17.10;59.70;17.50;96662.00;;;;5037302;28;20221;-82
2022/05/22 00:56:06;;;;;;;1.80;1.70;;;17.10;60.00;17.50;96661.00;;;;5037308;28;20822;-83
2022/05/22 00:58:34;;;;;;;1.60;1.50;;;17.10;59.90;17.50;96668.00;;;;5036421;28;20657;-82
2022/05/22 01:01:03;;;;;;;1.87;1.50;;;17.10;60.00;17.40;96662.00;;;;5037006;28;20204;-82
2022/05/22 01:03:32;;;;;;;1.93;1.60;;;17.10;60.10;17.40;96672.00;;;;5031537;28;20213;-82
2022/05/22 01:06:06;;;;;;;1.40;1.30;;;17.00;60.20;17.30;96657.00;;;;5035284;28;20197;-82
2022/05/22 01:08:37;;;;;;;1.10;1.10;;;17.00;60.50;17.30;96664.00;;;;5035414;28;20240;-82
2022/05/22 01:11:10;;;;;;;1.33;1.23;;;17.00;60.50;17.20;96652.00;;;;5034745;28;20185;-82
2022/05/22 01:13:44;;;;;;;1.30;1.20;;;16.90;60.60;17.20;96653.00;;;;5034764;28;20228;-82
2022/05/22 01:16:12;;;;;;;1.43;1.33;;;16.90;60.70;17.20;96647.00;;;;5026322;28;20293;-82
2022/05/22 01:18:45;;;;;;;1.13;1.13;;;16.90;60.50;17.20;96658.00;;;;5036947;28;20277;-82
2022/05/22 01:21:16;;;;;;;1.77;1.30;;;16.80;60.70;17.20;96662.00;;;;5035275;28;20645;-82
2022/05/22 01:23:46;;;;;;;2.83;1.20;;;16.80;60.60;17.10;96666.00;;;;5036915;28;20209;-83
2022/05/22 01:26:14;;;;;;;1.80;1.13;;;16.80;60.70;17.10;96665.00;;;;5038555;28;20201;-82
2022/05/22 01:28:41;;;;;;;1.53;1.30;;;16.80;60.80;17.10;96660.00;;;;5039334;28;20339;-82
2022/05/22 01:31:08;;;;;;;2.03;1.40;;;16.80;60.80;17.10;96666.00;;;;5037199;28;20681;-82
2022/05/22 01:33:37;;;;;;;1.23;1.13;;;16.70;60.80;17.10;96671.00;;;;5030678;28;20309;-82
2022/05/22 01:36:07;;;;;;;1.77;1.67;;;16.70;61.00;17.10;96664.00;;;;5028778;28;20228;-82
2022/05/22 01:38:35;;;;;;;1.80;1.13;;;16.70;61.20;17.10;96659.00;;;;5037509;28;20213;-83
2022/05/22 01:41:06;;;;;;;1.27;1.20;;;16.60;61.30;17.00;96664.00;;;;5037267;28;20265;-83
2022/05/22 01:43:33;;;;;;;1.40;1.27;;;16.60;61.40;17.00;96655.00;;;;5036239;28;20284;-82
2022/05/22 01:46:02;;;;;;;1.27;1.17;;;16.60;61.50;17.00;96651.00;;;;5023778;28;20274;-82
2022/05/22 01:48:30;;;;;;;1.87;1.20;;;16.60;61.70;17.00;96648.00;;;;5026779;28;20216;-82
2022/05/22 01:50:57;;;;;;;2.87;1.40;;;16.60;61.90;17.00;96648.00;;;;5038474;28;20197;-80
2022/05/22 01:53:25;;;;;;;1.30;1.30;;;16.50;62.00;16.90;96650.00;;;;5037479;28;20615;-79
2022/05/22 01:55:53;;;;;;;1.90;1.23;;;16.60;62.10;16.90;96640.00;;;;5037019;28;20284;-80
2022/05/22 01:58:21;;;;;;;1.23;1.13;;;16.50;62.10;16.90;96636.00;;;;5036905;28;20237;-80
2022/05/22 02:00:48;;;;;;;1.50;1.40;;;16.50;62.10;16.90;96629.00;;;;5034908;28;20285;-80
2022/05/22 02:03:15;;;;;;;1.70;1.17;;;16.50;61.90;16.80;96630.00;;;;5026646;28;20292;-82
2022/05/22 02:05:48;;;;;;;2.00;1.40;;;16.50;62.10;16.80;96637.00;;;;5036802;28;20539;-82
2022/05/22 02:08:21;;;;;;;1.20;1.20;;;16.50;62.40;16.80;96633.00;;;;5037029;28;20649;-82
2022/05/22 02:10:55;;;;;;;1.30;1.30;;;16.40;62.40;16.80;96631.00;;;;5037524;28;20198;-82
2022/05/22 02:13:31;;;;;;;1.70;1.60;;;16.50;63.30;16.80;96626.00;;;;5036576;28;20247;-82
2022/05/22 02:15:59;;;;;;;1.50;1.40;;;16.40;62.90;16.80;96622.00;;;;5023234;28;20200;-82
2022/05/22 02:18:29;;;;;;;1.60;1.40;;;16.40;62.70;16.70;96620.00;;;;5026321;28;20308;-81
2022/05/22 02:20:56;;;;;;;1.37;1.27;;;16.40;62.80;16.70;96624.00;;;;5027022;28;20198;-82
2022/05/22 02:23:24;;;;;;;1.23;1.10;;;16.40;62.80;16.60;96619.00;;;;5035719;28;20205;-82
2022/05/22 02:25:57;;;;;;;1.33;1.23;;;16.40;63.60;16.60;96621.00;;;;5030151;28;20588;-81
2022/05/22 02:28:31;;;;;;;1.40;1.30;;;16.30;62.90;16.60;96615.00;;;;5036731;28;20221;-81
2022/05/22 02:31:04;;;;;;;1.60;1.50;;;16.30;63.20;16.60;96603.00;;;;5025928;28;20193;-82
2022/05/22 02:33:32;;;;;;;2.70;1.80;;;16.30;63.20;16.60;96604.00;;;;5026149;28;20225;-82
2022/05/22 02:36:00;;;;;;;1.27;1.27;;;16.30;63.10;16.60;96604.00;;;;5040235;28;20211;-82
2022/05/22 02:38:27;;;;;;;1.37;1.27;;;16.20;63.00;16.60;96611.00;;;;5048331;28;20578;-82
2022/05/22 02:40:54;;;;;;;1.20;1.10;;;16.20;63.00;16.50;96608.00;;;;5037737;28;20232;-82
2022/05/22 02:43:22;;;;;;;1.23;1.13;;;16.20;63.00;16.50;96598.00;;;;5038341;28;20197;-82
2022/05/22 02:45:51;;;;;;;1.13;1.13;;;16.20;63.00;16.60;96593.00;;;;5038587;28;20196;-81
2022/05/22 02:48:18;;;;;;;1.40;1.30;;;16.20;63.10;16.50;96593.00;;;;5039693;28;20221;-82
2022/05/22 02:50:46;;;;;;;1.40;1.30;;;16.20;63.10;16.50;96589.00;;;;5043314;28;20260;-82
2022/05/22 02:53:13;;;;;;;2.30;1.57;;;16.20;63.50;16.50;96589.00;;;;5069478;22;20659;-81
2022/05/22 02:55:43;;;;;;;1.37;1.20;;;16.20;63.50;16.50;96593.00;;;;5064461;28;20287;-81
2022/05/22 02:58:13;;;;;;;1.47;1.37;;;16.20;63.50;16.50;96595.00;;;;5058867;28;20228;-81
2022/05/22 03:00:41;;;;;;;1.50;1.40;;;16.10;63.40;16.50;96595.00;;;;5066738;28;20197;-81
2022/05/22 03:03:09;;;;;;;1.73;1.63;;;16.10;63.60;16.50;96595.00;;;;5050592;28;20224;-81
2022/05/22 03:08:21;;;;;;;1.70;1.60;;;16.10;63.60;16.50;96593.00;;;;5059859;28;20238;-81
2022/05/22 03:10:48;;;;;;;1.47;1.37;;;16.10;63.70;16.40;96598.00;;;;5068697;28;20691;-81
2022/05/22 03:13:16;;;;;;;1.63;1.50;;;16.00;63.70;16.40;96600.00;;;;5059449;28;20235;-80
2022/05/22 03:15:46;;;;;;;3.97;1.80;;;16.00;63.60;16.40;96597.00;;;;5061614;28;20303;-81
2022/05/22 03:18:14;;;;;;;1.50;1.40;;;16.00;63.50;16.40;96588.00;;;;5067211;28;20217;-82
2022/05/22 03:20:41;;;;;;;2.20;1.50;;;16.00;63.50;16.40;96588.00;;;;5065787;28;20193;-81
2022/05/22 03:23:09;;;;;;;1.27;1.20;;;16.00;63.40;16.40;96591.00;;;;5060282;28;20197;-82
2022/05/22 03:25:36;;;;;;;2.73;1.43;;;16.00;63.40;16.30;96596.00;;;;5062471;28;20204;-82
2022/05/22 03:28:03;;;;;;;1.13;1.10;;;16.00;63.50;16.30;96593.00;;;;5073223;28;21177;-81
2022/05/22 03:30:31;;;;;;;1.33;1.27;;;15.90;63.50;16.30;96591.00;;;;5064230;28;20197;-82
2022/05/22 03:32:58;;;;;;;1.60;1.50;;;15.90;63.60;16.20;96584.00;;;;5046333;28;20727;-81
2022/05/22 03:35:29;;;;;;;1.50;1.40;;;15.90;63.90;16.20;96581.00;;;;5066822;28;20188;-82
2022/05/22 03:37:56;;;;;;;1.37;1.33;;;15.80;64.00;16.20;96580.00;;;;5069581;28;20216;-81
2022/05/22 03:40:24;;;;;;;1.30;1.20;;;15.80;64.10;16.20;96589.00;;;;5059160;28;20277;-81
2022/05/22 03:42:51;;;;;;;1.40;1.13;;;15.80;64.20;16.10;96594.00;;;;5064904;28;20200;-81
2022/05/22 03:45:18;;;;;;;1.73;1.40;;;15.80;65.00;16.10;96595.00;;;;5049676;28;20197;-81
2022/05/22 03:47:45;;;;;;;1.53;1.43;;;15.80;64.40;16.10;96584.00;;;;5082488;28;20232;-81
2022/05/22 03:50:14;;;;;;;1.60;1.50;;;15.70;64.60;16.10;96577.00;;;;5070677;28;20204;-81
2022/05/22 03:52:47;;;;;;;1.60;1.50;;;15.70;64.70;16.10;96579.00;;;;5080572;28;20283;-81
2022/05/22 03:55:16;;;;;;;1.23;1.17;;;15.70;64.70;16.10;96572.00;;;;5059948;28;20583;-81
2022/05/22 03:57:47;;;;;;;1.40;1.30;;;15.70;64.80;16.10;96586.00;;;;5061248;28;20287;-81
2022/05/22 04:00:19;;;;;;;2.57;1.50;;;15.70;64.80;16.10;96573.00;;;;5056626;28;20680;-81
2022/05/22 04:02:47;;;;;;;1.60;1.50;;;15.70;64.80;16.10;96576.00;;;;5068262;28;20192;-82
2022/05/22 04:05:14;;;;;;;1.60;1.30;;;15.70;64.90;16.10;96577.00;;;;5070582;28;20263;-81
2022/05/22 04:07:46;;;;;;;1.50;1.40;;;15.70;64.90;16.10;96575.00;;;;5064568;28;20228;-81
2022/05/22 04:10:15;;;;;;;1.37;1.30;;;15.70;65.10;16.10;96570.00;;;;5070421;28;20633;-81
2022/05/22 04:12:44;;;;;;;1.30;1.30;;;15.70;65.10;16.10;96578.00;;;;5060785;28;20221;-81
2022/05/22 04:15:18;;;;;;;1.50;1.40;;;15.70;66.00;16.10;96580.00;;;;5063267;28;20311;-81
2022/05/22 04:17:46;;;;;;;1.43;1.33;;;15.70;65.60;16.10;96593.00;;;;5064948;28;20251;-82
2022/05/22 04:20:18;;;;;;;1.73;1.50;;;15.70;65.50;16.10;96580.00;;;;5056576;28;20201;-81
2022/05/22 04:25:39;;;;;;;1.53;1.43;;;15.70;65.60;16.10;96571.00;;;;5024144;28;20198;-82
2022/05/22 04:28:09;;;;;;;1.50;1.40;;;15.70;65.70;16.10;96582.00;;;;5063042;28;20243;-82
2022/05/22 04:30:39;;;;;;;1.43;1.33;;;15.70;65.90;16.20;96575.00;;;;5073847;28;20192;-82
2022/05/22 04:33:09;;;;;;;1.70;1.53;;;15.70;66.10;16.20;96572.00;;;;5050429;28;20220;-82
2022/05/22 04:35:37;;;;;;;1.73;1.63;;;15.70;66.10;16.20;96571.00;;;;5072787;28;20192;-82
2022/05/22 04:38:11;;;;;;;1.63;1.30;;;15.70;66.10;16.20;96574.00;;;;5053845;28;20756;-82
2022/05/22 04:40:39;;;;;;;1.87;1.60;;;15.70;66.50;16.20;96562.00;;;;5065371;28;20261;-82
2022/05/22 04:43:11;;;;;;;1.27;1.27;;;15.70;66.30;16.20;96564.00;;;;5059605;28;20194;-82
2022/05/22 04:45:42;;;;;;;1.67;1.57;;;15.80;66.30;16.30;96565.00;;;;5062535;28;20199;-82
2022/05/22 04:48:09;;;;;;;1.70;1.60;;;15.80;66.50;16.30;96564.00;;;;5060470;28;20611;-82
2022/05/22 04:50:36;;;;;;;1.97;1.77;;;15.80;66.50;16.30;96563.00;;;;5069317;28;20567;-82
2022/05/22 04:53:04;;;;;;;1.90;1.80;;;15.80;66.60;16.30;96563.00;;;;5068288;28;20295;-82
2022/05/22 04:55:35;;;;;;;2.27;2.17;;;15.80;66.70;16.40;96552.00;;;;5063097;28;20235;-82
2022/05/22 04:58:02;;;;;;;2.47;2.20;;;15.90;66.70;16.40;96552.00;;;;5068536;28;20223;-82
2022/05/22 05:00:29;;;;;;;2.07;1.97;;;15.90;66.70;16.40;96549.00;;;;5069286;28;20627;-82
2022/05/22 05:02:56;;;;;;;2.83;2.63;;;16.00;67.00;16.40;96552.00;;;;5048777;28;20292;-82
2022/05/22 05:05:24;;;;;;;5.33;3.00;;;15.90;67.10;16.50;96558.00;;;;5063272;28;20271;-82
2022/05/22 05:07:51;;;;;;;3.07;2.87;;;16.00;67.20;16.50;96545.00;;;;5056804;28;20216;-82
2022/05/22 05:10:19;;;;;;;3.00;2.80;;;16.00;68.10;16.50;96556.00;;;;5059264;28;20280;-82
2022/05/22 05:12:48;;;;;;;3.23;2.93;;;16.00;67.50;16.60;96553.00;;;;5059253;28;20196;-82
2022/05/22 05:15:19;;;;;;;3.43;3.13;;;16.10;67.60;16.60;96561.00;;;;5057994;28;20282;-82
2022/05/22 05:17:48;;;;;;;3.73;3.50;;;16.10;67.70;16.70;96561.00;;;;5074843;28;20791;-82
2022/05/22 05:20:20;;;;;;;3.17;2.97;;;16.10;67.80;16.70;96559.00;;;;5065148;28;20197;-82
2022/05/22 05:22:48;;;;;;;3.07;2.87;;;16.20;68.20;16.70;96566.00;;;;5062418;28;20189;-82
2022/05/22 05:25:15;;;;;;;3.47;3.20;;;16.20;68.30;16.80;96562.00;;;;5066132;28;20227;-82
2022/05/22 05:27:42;;;;;;;3.07;2.87;;;16.30;68.40;16.80;96567.00;;;;5064013;28;20226;-82
2022/05/22 05:30:13;;;;;;;3.80;3.13;;;16.30;69.10;16.90;96563.00;;;;5059705;28;20210;-82
2022/05/22 05:32:45;;;;;;;3.30;3.00;;;16.30;68.50;16.90;96564.00;;;;5066386;28;20219;-82
2022/05/22 05:35:15;;;;;;;3.17;2.87;;;16.40;68.50;17.00;96565.00;;;;5058966;28;20580;-82
2022/05/22 05:37:46;;;;;;;3.10;2.87;;;16.40;68.60;17.10;96571.00;;;;5077017;28;20213;-82
2022/05/22 05:40:14;;;;;;;3.33;3.13;;;16.50;68.50;17.10;96565.00;;;;5071583;28;20206;-82
2022/05/22 05:42:41;;;;;;;3.20;3.00;;;16.50;68.50;17.20;96564.00;;;;5076597;28;20605;-82
2022/05/22 05:45:13;;;;;;;3.53;3.23;;;16.60;68.50;17.20;96560.00;;;;5061345;28;20703;-83
2022/05/22 05:47:40;;;;;;;3.53;3.27;;;16.70;68.50;17.30;96546.00;;;;5068083;28;20221;-83
2022/05/22 05:50:09;;;;;;;3.73;3.33;;;16.70;68.40;17.30;96551.00;;;;5068470;28;20283;-82
2022/05/22 05:52:40;;;;;;;4.03;3.63;;;16.80;68.50;17.40;96530.00;;;;5061902;28;20243;-82
2022/05/22 05:55:16;;;;;;;3.73;3.43;;;16.80;68.60;17.50;96522.00;;;;5058607;28;20243;-82
2022/05/22 05:57:45;;;;;;;3.60;3.30;;;16.90;68.50;17.50;96522.00;;;;5056563;28;20800;-82
2022/05/22 06:00:26;;;;;;;3.53;3.23;;;17.00;68.30;17.60;96514.00;;;;5051078;28;20196;-82
2022/05/22 06:02:56;;;;;;;3.17;2.97;;;17.00;68.50;17.70;96514.00;;;;5068084;28;20223;-83
2022/05/22 06:05:30;;;;;;;3.47;3.27;;;17.10;68.40;17.70;96520.00;;;;5057525;28;20275;-82
2022/05/22 06:08:04;;;;;;;4.03;3.10;;;17.20;68.40;17.80;96515.00;;;;5051631;28;20243;-82
2022/05/22 06:10:31;;;;;;;3.73;3.50;;;17.30;68.50;17.90;96502.00;;;;5058048;28;20250;-82
2022/05/22 06:13:07;;;;;;;3.63;3.33;;;17.30;68.30;18.00;96505.00;;;;5051555;28;20199;-82
2022/05/22 06:15:38;;;;;;;3.63;3.43;;;17.40;68.70;18.20;96501.00;;;;5053906;28;20705;-82
2022/05/22 06:18:06;;;;;;;3.30;3.10;;;17.50;68.80;18.40;96505.00;;;;5065828;28;20220;-82
2022/05/22 06:20:36;;;;;;;3.43;3.23;;;17.60;69.10;18.50;96516.00;;;;5066646;28;20235;-83
2022/05/22 06:23:06;;;;;;;3.77;3.47;;;17.80;68.90;18.70;96508.00;;;;5066292;28;20197;-82
2022/05/22 06:25:34;;;;;;;3.90;3.60;;;17.90;68.60;18.80;96520.00;;;;5067366;28;20699;-82
2022/05/22 06:28:02;;;;;;;3.67;3.47;;;18.00;68.60;18.90;96526.00;;;;5065895;28;20208;-82
2022/05/22 06:30:29;;;;;;;3.70;3.50;;;18.20;68.40;19.00;96520.00;;;;5062358;28;20196;-82
2022/05/22 06:33:00;;;;;;;4.10;3.80;;;18.30;68.40;19.10;96525.00;;;;5054165;28;20184;-82
2022/05/22 06:35:27;;;;;;;4.47;3.67;;;18.40;68.00;19.20;96524.00;;;;5060438;28;20748;-82
2022/05/22 06:37:54;;;;;;;3.70;3.50;;;18.50;67.60;19.30;96518.00;;;;5062671;28;20225;-82
2022/05/22 06:40:21;;;;;;;3.30;3.10;;;18.60;67.30;19.30;96526.00;;;;5051210;28;20193;-82
2022/05/22 06:42:48;;;;;;;3.13;2.93;;;18.70;66.90;19.40;96524.00;;;;5056840;28;20203;-82
2022/05/22 06:45:21;;;;;;;2.87;2.67;;;18.80;66.40;19.50;96531.00;;;;5067097;28;20196;-82
2022/05/22 06:47:48;;;;;;;2.50;2.40;;;18.80;66.20;19.60;96526.00;;;;5060456;28;20258;-85
2022/05/22 06:50:20;;;;;;;2.40;2.20;;;18.90;65.50;19.70;96526.00;;;;5071575;28;20196;-84
2022/05/22 06:52:47;;;;;;;2.10;2.00;;;19.00;64.10;19.80;96514.00;;;;5068114;28;20207;-85
2022/05/22 06:55:18;;;;;;;2.00;1.90;;;19.10;64.20;19.80;96513.00;;;;5066370;28;20251;-85
2022/05/22 06:57:46;;;;;;;1.90;1.33;;;19.20;64.30;19.90;96519.00;;;;5071503;28;20216;-85
2022/05/22 07:00:18;;;;;;;1.20;1.10;;;19.20;63.10;20.00;96515.00;;;;5071508;28;20200;-85
2022/05/22 07:02:46;;;;;;;1.93;1.50;;;19.30;62.20;20.10;96513.00;;;;5071624;28;20180;-84
2022/05/22 07:05:14;;;;;;;2.00;1.53;;;19.40;62.60;20.20;96512.00;;;;5071473;28;20277;-85
2022/05/22 07:07:42;;;;;;;1.73;1.37;;;19.50;63.10;20.40;96512.00;;;;5052186;28;20273;-85
2022/05/22 07:10:10;;;;;;;1.33;0.97;;;19.60;63.70;20.50;96519.00;;;;5051522;28;20292;-85
2022/05/22 07:12:37;;;;;;;1.10;1.00;;;19.80;64.00;20.70;96506.00;;;;5051067;28;20229;-84
2022/05/22 07:15:07;;;;;;;1.67;1.33;;;19.90;63.40;20.90;96517.00;;;;5050923;28;20266;-85
2022/05/22 07:17:34;;;;;;;0.87;0.83;;;20.10;63.10;21.10;96517.00;;;;5051271;28;20286;-85
2022/05/22 07:20:02;;;;;;;1.63;1.13;;;20.20;62.40;21.30;96500.00;;;;5051320;28;20190;-85
2022/05/22 07:22:29;;;;;;;1.07;1.03;;;20.40;62.20;21.50;96503.00;;;;5044217;28;20203;-85
2022/05/22 07:24:57;;;;;;;1.07;1.00;;;20.60;61.80;21.70;96508.00;;;;5039631;28;20235;-85
2022/05/22 07:27:25;;;;;;;1.20;1.10;;;20.70;61.60;21.90;96494.00;;;;5050946;28;20248;-85
2022/05/22 07:29:52;;;;;;;1.10;1.00;;;20.90;61.40;22.10;96506.00;;;;5062933;28;20660;-85
2022/05/22 07:32:22;;;;;;;0.90;0.90;;;21.10;60.40;22.30;96508.00;;;;5069665;28;20196;-85
2022/05/22 07:34:49;;;;;;;1.63;1.30;;;21.30;60.10;22.50;96507.00;;;;5073189;28;20220;-84
2022/05/22 07:37:16;;;;;;;1.57;1.30;;;21.50;59.60;22.70;96497.00;;;;5054630;28;20213;-84
2022/05/22 07:39:43;;;;;;;3.30;1.23;;;21.70;59.60;22.90;96507.00;;;;5056391;28;20722;-84
2022/05/22 07:42:12;;;;;;;1.40;1.30;;;21.80;58.50;23.10;96505.00;;;;5055085;28;20193;-84
2022/05/22 07:44:40;;;;;;;1.60;1.50;;;22.00;58.00;23.30;96509.00;;;;5067150;28;20200;-84
2022/05/22 07:47:07;;;;;;;1.30;0.90;;;22.20;57.60;23.50;96504.00;;;;5061164;28;20244;-85
2022/05/22 07:52:22;;;;;;;0.87;0.80;;;22.60;57.20;24.10;96506.00;;;;5051097;28;20223;-85
2022/05/22 07:54:50;;;;;;;2.10;1.00;;;22.70;56.80;24.40;96494.00;;;;5066298;28;20651;-85
2022/05/22 07:57:19;;;;;;;1.80;0.90;;;23.00;55.40;24.60;96487.00;;;;5050744;28;20311;-86
2022/05/22 07:59:46;;;;;;;0.60;0.60;;;23.20;55.30;24.90;96492.00;;;;5058857;28;20197;-87
2022/05/22 08:02:16;;;;;;;0.77;0.60;;;23.40;55.20;25.20;96490.00;;;;5063874;28;20201;-86
2022/05/22 08:04:44;;;;;;;0.97;0.73;;;23.50;54.10;25.50;96492.00;;;;5053190;28;20707;-87
2022/05/22 08:07:12;;;;;;;1.70;0.70;;;23.80;53.60;25.80;96497.00;;;;5055238;28;20216;-88
2022/05/22 08:09:39;;;;;;;2.30;0.90;;;23.90;53.10;26.10;96492.00;;;;5059777;28;20206;-86
2022/05/22 08:12:08;;;;;;;0.87;0.87;;;24.10;52.60;26.40;96492.00;;;;5048763;28;20204;-89
2022/05/22 08:14:37;;;;;;;2.50;0.90;;;24.30;52.30;26.60;96491.00;;;;5044524;28;20196;-87
2022/05/22 08:17:05;;;;;;;0.97;0.73;;;24.50;51.90;26.80;96484.00;;;;5054682;28;20240;-86
2022/05/22 08:19:32;;;;;;;1.80;0.70;;;24.70;51.50;27.10;96489.00;;;;5051616;28;20698;-87
2022/05/22 08:21:59;;;;;;;0.67;0.67;;;24.90;51.30;27.40;96489.00;;;;5072527;28;20676;-87
2022/05/22 08:24:27;;;;;;;1.00;0.90;;;25.00;51.40;27.70;96488.00;;;;5053248;28;20649;-87
2022/05/22 08:26:54;;;;;;;2.70;0.80;;;25.20;50.70;28.00;96487.00;;;;5060899;28;20220;-88
2022/05/22 08:29:24;;;;;;;1.80;0.80;;;25.40;50.70;28.40;96484.00;;;;5047954;28;20209;-89
2022/05/22 08:31:53;;;;;;;0.57;0.57;;;25.60;50.30;28.70;96491.00;;;;5051661;28;20199;-88
2022/05/22 08:34:20;;;;;;;1.60;0.70;;;25.80;49.70;29.10;96488.00;;;;5058851;28;20196;-89
2022/05/22 08:36:50;;;;;;;1.80;0.70;;;26.00;49.10;29.40;96487.00;;;;5047834;28;20244;-90
2022/05/22 08:39:17;;;;;;;1.70;0.90;;;26.20;48.20;29.70;96487.00;;;;5037745;28;20558;-87
2022/05/22 08:41:49;;;;;;;0.50;0.40;;;26.50;48.50;30.10;96476.00;;;;5046088;28;20569;-88
2022/05/22 08:44:21;;;;;;;0.50;0.50;;;26.70;48.10;30.50;96474.00;;;;5052901;28;20287;-87
2022/05/22 08:47:01;;;;;;;0.67;0.67;;;26.90;47.30;30.80;96473.00;;;;5061408;28;20315;-87
2022/05/22 08:49:39;;;;;;;1.52;0.55;;;27.20;47.40;31.20;96475.00;;;;5053751;28;20200;-88
2022/05/22 08:52:17;;;;;;;2.20;0.70;;;27.50;47.40;31.60;96475.00;;;;5080295;22;20234;-80
2022/05/22 08:54:51;;;;;;;0.70;0.70;;;27.80;47.80;32.00;96477.00;;;;5059059;28;20402;-80
2022/05/22 09:00:11;;;;;;;0.70;0.60;;;28.50;46.40;32.70;96479.00;;;;5055495;28;20210;-79
2022/05/22 09:02:46;;;;;;;0.70;0.70;;;28.80;46.60;33.00;96475.00;;;;5062742;28;20196;-80
2022/05/22 09:05:17;;;;;;;1.05;0.68;;;29.10;45.90;33.20;96487.00;;;;5060111;28;20228;-80
2022/05/22 09:07:55;;;;;;;1.90;0.85;;;29.40;45.60;33.50;96488.00;;;;5073900;28;20200;-80
2022/05/22 09:10:30;;;;;;;0.80;0.68;;;29.80;45.00;33.80;96479.00;;;;5069227;28;20196;-80
2022/05/22 09:13:16;;;;;;;0.60;0.60;;;30.00;44.40;34.00;96486.00;;;;5068003;28;20270;-81
2022/05/22 09:15:48;;;;;;;1.65;0.70;;;30.40;42.70;34.20;96487.00;;;;5058767;28;20224;-81
2022/05/22 09:18:27;;;;;;;1.20;0.57;;;30.70;43.50;34.40;96485.00;;;;5055136;28;20193;-79
2022/05/22 09:20:58;;;;;;;1.90;0.70;;;31.00;43.00;34.60;96488.00;;;;5057107;28;20184;-79
2022/05/22 09:23:53;;;;;;;0.60;0.60;;;31.40;41.60;34.80;96479.00;;;;5062827;28;20197;-78
2022/05/22 09:26:42;;;;;;;1.05;0.68;;;31.80;41.10;35.10;96480.00;;;;5058465;28;20232;-79
2022/05/22 09:29:39;;;;;;;1.15;0.50;;;32.10;40.30;35.20;96474.00;;;;5055253;28;20558;-81
2022/05/22 09:32:21;;;;;;;0.80;0.70;;;32.60;40.20;35.50;96475.00;;;;5055194;28;20197;-82
2022/05/22 09:35:06;;;;;;;0.80;0.60;;;33.10;39.10;35.60;96469.00;;;;5066487;28;20223;-81
2022/05/22 09:37:51;;;;;;;0.73;0.60;;;33.50;38.40;35.70;96476.00;;;;5053645;28;20204;-81
2022/05/22 09:40:34;;;;;;;0.85;0.70;;;33.90;37.90;35.70;96467.00;;;;5065121;28;20219;-81
2022/05/22 09:43:48;;;;;;;0.40;0.40;;;34.30;38.40;35.90;96469.00;;;;5053989;28;20195;-81
2022/05/22 09:46:37;;;;;;;0.60;0.57;;;34.70;37.60;36.00;96460.00;;;;5066495;28;20208;-81
2022/05/22 09:49:26;;;;;;;0.55;0.35;;;35.00;35.90;36.00;96458.00;;;;5046464;28;20196;-81
2022/05/22 09:52:04;;;;;;;1.25;0.75;;;35.30;36.00;36.00;96451.00;;;;5057489;28;20200;-81
2022/05/22 09:55:05;;;;;;;0.95;0.60;;;35.60;35.70;36.10;96447.00;;;;5062824;28;20658;-80
2022/05/22 09:57:55;;;;;;;0.68;0.60;;;35.80;35.40;36.10;96446.00;;;;5057935;28;20197;-80
2022/05/22 10:00:31;;;;;;;2.28;0.65;;;36.00;35.30;36.20;96449.00;;;;5063454;28;20202;-81
2022/05/22 10:03:09;;;;;;;0.65;0.40;;;36.20;34.80;36.20;96439.00;;;;5060266;28;20192;-81
2022/05/22 10:05:51;;;;;;;0.60;0.50;;;36.30;33.80;36.20;96432.00;;;;5068174;28;20230;-81
2022/05/22 10:08:38;;;;;;;0.93;0.70;;;36.40;34.20;36.30;96427.00;;;;5074737;28;20218;-80
2022/05/22 10:11:15;;;;;;;0.85;0.57;;;36.50;34.20;36.30;96426.00;;;;5056246;28;20206;-81
2022/05/22 10:14:01;;;;;;;0.32;0.32;;;36.70;33.90;36.30;96423.00;;;;5065517;28;20230;-81
2022/05/22 10:16:46;;;;;;;0.50;0.50;;;36.80;34.00;36.40;96415.00;;;;5073342;28;20222;-80
2022/05/22 10:19:33;;;;;;;0.60;0.50;;;36.90;33.40;36.40;96416.00;;;;5056733;28;20197;-80
2022/05/22 10:22:14;;;;;;;0.38;0.38;;;37.00;33.50;36.40;96412.00;;;;5066953;28;20188;-81
2022/05/22 10:25:02;;;;;;;2.08;0.50;;;37.10;33.40;36.40;96410.00;;;;5058591;28;20307;-80
2022/05/22 10:27:51;;;;;;;0.50;0.50;;;37.20;32.90;36.40;96410.00;;;;5059577;28;20264;-80
2022/05/22 10:30:25;;;;;;;0.63;0.40;;;37.20;31.90;36.30;96408.00;;;;5058693;28;20201;-82
2022/05/22 10:33:01;;;;;;;0.50;0.50;;;37.20;32.10;36.20;96405.00;;;;5061096;28;20580;-81
2022/05/22 10:35:35;;;;;;;1.10;0.60;;;37.10;32.20;36.00;96408.00;;;;5065538;28;20784;-81
2022/05/22 10:38:10;;;;;;;0.93;0.63;;;37.10;32.80;36.00;96405.00;;;;5069446;28;20217;-82
2022/05/22 10:43:35;;;;;;;0.38;0.38;;;36.80;30.80;35.70;96396.00;;;;5058574;28;20283;-80
2022/05/22 10:46:02;;;;;;;0.90;0.47;;;36.70;31.70;35.50;96389.00;;;;5076455;28;20197;-80
2022/05/22 10:48:31;;;;;;;1.42;0.60;;;36.50;31.80;35.40;96390.00;;;;5063233;28;20197;-81
2022/05/22 10:51:05;;;;;;;0.85;0.85;;;36.30;31.60;35.20;96398.00;;;;5067840;28;20204;-80
2022/05/22 10:53:39;;;;;;;0.98;0.40;;;36.00;31.50;35.00;96390.00;;;;5064244;28;20684;-81
2022/05/22 10:56:18;;;;;;;0.70;0.70;;;35.70;31.30;34.70;96392.00;;;;5067276;28;20220;-81
2022/05/22 10:58:56;;;;;;;0.73;0.57;;;35.40;31.20;34.40;96388.00;;;;5063488;28;20207;-84
2022/05/22 11:01:28;;;;;;;0.70;0.70;;;34.90;30.50;34.00;96379.00;;;;5065094;28;20266;-80
2022/05/22 11:04:07;;;;;;;0.98;0.80;;;34.50;31.00;33.60;96379.00;;;;5040524;28;20214;-80
2022/05/22 11:06:37;;;;;;;0.30;0.30;;;33.90;31.70;33.20;96379.00;;;;5060838;28;20213;-80
2022/05/22 11:09:08;;;;;;;0.90;0.70;;;33.50;32.30;32.90;96380.00;;;;5061931;28;20192;-81
2022/05/22 11:11:38;;;;;;;1.30;0.70;;;33.00;32.50;32.50;96369.00;;;;5060392;28;20208;-80
2022/05/22 11:14:13;;;;;;;1.65;0.50;;;32.60;33.80;32.20;96373.00;;;;5063882;28;20224;-82
2022/05/22 11:16:41;;;;;;;1.10;0.65;;;32.20;33.80;31.90;96370.00;;;;5080459;28;20224;-83
2022/05/22 11:19:11;;;;;;;1.45;0.73;;;31.80;34.20;31.70;96364.00;;;;5066477;28;20243;-82
2022/05/22 11:21:57;;;;;;;0.52;0.50;;;31.50;34.20;31.40;96358.00;;;;5063488;28;20204;-81
2022/05/22 11:24:35;;;;;;;0.90;0.73;;;31.20;34.40;31.10;96352.00;;;;5061458;28;20236;-83
2022/05/22 11:27:22;;;;;;;0.60;0.50;;;30.90;35.10;30.80;96347.00;;;;5066655;28;20557;-83
2022/05/22 11:30:08;;;;;;;1.17;0.80;;;30.60;34.70;30.60;96350.00;;;;5069944;28;20215;-80